sensor_id;sensor_type;location;lat;lon;timestamp;pressure;altitude;pressure_sealevel;temperature
61977;BMP280;45905;50.570;10.428;2023-09-07T00:01:20;98470.06;;;16.63
61977;BMP280;45905;50.570;10.428;2023-09-07T00:03:47;98457.47;;;16.61
61977;BMP280;45905;50.570;10.428;2023-09-07T00:06:15;98458.78;;;16.58
61977;BMP280;45905;50.570;10.428;2023-09-07T00:08:43;98453.25;;;16.54
61977;BMP280;45905;50.570;10.428;2023-09-07T00:11:10;98448.28;;;16.53
61977;BMP280;45905;50.570;10.428;2023-09-07T00:13:38;98451.53;;;16.47
61977;BMP280;45905;50.570;10.428;2023-09-07T00:16:06;98455.44;;;16.43
61977;BMP280;45905;50.570;10.428;2023-09-07T00:18:34;98444.34;;;16.36
61977;BMP280;45905;50.570;10.428;2023-09-07T00:21:01;98448.84;;;16.34
61977;BMP280;45905;50.570;10.428;2023-09-07T00:23:29;98447.25;;;16.33
61977;BMP280;45905;50.570;10.428;2023-09-07T00:25:57;98444.25;;;16.30
61977;BMP280;45905;50.570;10.428;2023-09-07T00:28:24;98445.41;;;16.27
61977;BMP280;45905;50.570;10.428;2023-09-07T00:30:52;98442.25;;;16.25
61977;BMP280;45905;50.570;10.428;2023-09-07T00:33:20;98447.69;;;16.23
61977;BMP280;45905;50.570;10.428;2023-09-07T00:35:47;98448.84;;;16.20
61977;BMP280;45905;50.570;10.428;2023-09-07T00:38:14;98454.94;;;16.19
61977;BMP280;45905;50.570;10.428;2023-09-07T00:40:45;98451.13;;;16.15
61977;BMP280;45905;50.570;10.428;2023-09-07T00:43:12;98455.00;;;16.11
61977;BMP280;45905;50.570;10.428;2023-09-07T00:45:40;98447.72;;;16.08
61977;BMP280;45905;50.570;10.428;2023-09-07T00:48:08;98449.56;;;16.00
61977;BMP280;45905;50.570;10.428;2023-09-07T00:50:35;98444.44;;;16.00
61977;BMP280;45905;50.570;10.428;2023-09-07T00:53:06;98451.50;;;15.98
61977;BMP280;45905;50.570;10.428;2023-09-07T00:55:35;98450.81;;;15.96
61977;BMP280;45905;50.570;10.428;2023-09-07T00:58:06;98445.63;;;15.90
61977;BMP280;45905;50.570;10.428;2023-09-07T01:00:34;98449.94;;;15.89
61977;BMP280;45905;50.570;10.428;2023-09-07T01:03:02;98447.56;;;15.88
61977;BMP280;45905;50.570;10.428;2023-09-07T01:06:10;98457.94;;;15.86
61977;BMP280;45905;50.570;10.428;2023-09-07T01:08:46;98449.06;;;15.83
61977;BMP280;45905;50.570;10.428;2023-09-07T01:11:17;98450.19;;;15.80
61977;BMP280;45905;50.570;10.428;2023-09-07T01:13:45;98443.66;;;15.78
61977;BMP280;45905;50.570;10.428;2023-09-07T01:16:13;98444.63;;;15.77
61977;BMP280;45905;50.570;10.428;2023-09-07T01:18:41;98445.00;;;15.74
61977;BMP280;45905;50.570;10.428;2023-09-07T01:21:11;98440.22;;;15.71
61977;BMP280;45905;50.570;10.428;2023-09-07T01:23:42;98435.47;;;15.68
61977;BMP280;45905;50.570;10.428;2023-09-07T01:26:10;98440.13;;;15.65
61977;BMP280;45905;50.570;10.428;2023-09-07T01:28:38;98441.28;;;15.62
61977;BMP280;45905;50.570;10.428;2023-09-07T01:31:05;98444.16;;;15.59
61977;BMP280;45905;50.570;10.428;2023-09-07T01:33:33;98436.88;;;15.56
61977;BMP280;45905;50.570;10.428;2023-09-07T01:36:01;98446.44;;;15.54
61977;BMP280;45905;50.570;10.428;2023-09-07T01:38:29;98434.03;;;15.51
61977;BMP280;45905;50.570;10.428;2023-09-07T01:40:57;98438.69;;;15.48
61977;BMP280;45905;50.570;10.428;2023-09-07T01:43:24;98439.81;;;15.46
61977;BMP280;45905;50.570;10.428;2023-09-07T01:45:51;98441.75;;;15.44
61977;BMP280;45905;50.570;10.428;2023-09-07T01:48:18;98444.47;;;15.42
61977;BMP280;45905;50.570;10.428;2023-09-07T01:50:46;98445.63;;;15.40
61977;BMP280;45905;50.570;10.428;2023-09-07T01:53:13;98456.00;;;15.38
61977;BMP280;45905;50.570;10.428;2023-09-07T01:55:41;98449.47;;;15.36
61977;BMP280;45905;50.570;10.428;2023-09-07T01:58:08;98446.28;;;15.34
61977;BMP280;45905;50.570;10.428;2023-09-07T02:00:38;98450.16;;;15.30
61977;BMP280;45905;50.570;10.428;2023-09-07T02:03:06;98450.50;;;15.27
61977;BMP280;45905;50.570;10.428;2023-09-07T02:05:34;98445.72;;;15.24
61977;BMP280;45905;50.570;10.428;2023-09-07T02:08:01;98444.50;;;15.20
61977;BMP280;45905;50.570;10.428;2023-09-07T02:10:28;98439.56;;;15.19
61977;BMP280;45905;50.570;10.428;2023-09-07T02:12:56;98442.44;;;15.16
61977;BMP280;45905;50.570;10.428;2023-09-07T02:15:25;98448.50;;;15.15
61977;BMP280;45905;50.570;10.428;2023-09-07T02:17:52;98447.13;;;15.12
61977;BMP280;45905;50.570;10.428;2023-09-07T02:20:20;98440.91;;;15.07
61977;BMP280;45905;50.570;10.428;2023-09-07T02:22:48;98448.72;;;15.06
61977;BMP280;45905;50.570;10.428;2023-09-07T02:25:15;98448.94;;;15.04
61977;BMP280;45905;50.570;10.428;2023-09-07T02:27:42;98455.16;;;15.02
61977;BMP280;45905;50.570;10.428;2023-09-07T02:30:10;98452.75;;;15.00
61977;BMP280;45905;50.570;10.428;2023-09-07T02:32:40;98452.31;;;14.97
61977;BMP280;45905;50.570;10.428;2023-09-07T02:35:08;98444.84;;;14.95
61977;BMP280;45905;50.570;10.428;2023-09-07T02:37:37;98456.13;;;14.93
61977;BMP280;45905;50.570;10.428;2023-09-07T02:40:06;98452.94;;;14.91
61977;BMP280;45905;50.570;10.428;2023-09-07T02:42:36;98452.50;;;14.88
61977;BMP280;45905;50.570;10.428;2023-09-07T02:45:03;98451.09;;;14.85
61977;BMP280;45905;50.570;10.428;2023-09-07T02:47:31;98453.16;;;14.82
61977;BMP280;45905;50.570;10.428;2023-09-07T02:49:58;98455.88;;;14.80
61977;BMP280;45905;50.570;10.428;2023-09-07T02:52:26;98451.47;;;14.74
61977;BMP280;45905;50.570;10.428;2023-09-07T02:54:53;98463.25;;;14.75
61977;BMP280;45905;50.570;10.428;2023-09-07T02:57:20;98458.47;;;14.72
61977;BMP280;45905;50.570;10.428;2023-09-07T02:59:48;98469.47;;;14.73
61977;BMP280;45905;50.570;10.428;2023-09-07T03:02:15;98466.47;;;14.69
61977;BMP280;45905;50.570;10.428;2023-09-07T03:04:42;98465.03;;;14.67
61977;BMP280;45905;50.570;10.428;2023-09-07T03:07:10;98462.66;;;14.66
61977;BMP280;45905;50.570;10.428;2023-09-07T03:09:37;98454.53;;;14.62
61977;BMP280;45905;50.570;10.428;2023-09-07T03:12:06;98458.88;;;14.62
61977;BMP280;45905;50.570;10.428;2023-09-07T03:14:33;98454.53;;;14.62
61977;BMP280;45905;50.570;10.428;2023-09-07T03:17:01;98454.72;;;14.61
61977;BMP280;45905;50.570;10.428;2023-09-07T03:19:30;98457.59;;;14.58
61977;BMP280;45905;50.570;10.428;2023-09-07T03:21:58;98462.06;;;14.56
61977;BMP280;45905;50.570;10.428;2023-09-07T03:24:26;98459.06;;;14.52
61977;BMP280;45905;50.570;10.428;2023-09-07T03:26:55;98465.94;;;14.52
61977;BMP280;45905;50.570;10.428;2023-09-07T03:29:22;98453.19;;;14.52
61977;BMP280;45905;50.570;10.428;2023-09-07T03:31:50;98464.16;;;14.52
61977;BMP280;45905;50.570;10.428;2023-09-07T03:34:18;98455.25;;;14.49
61977;BMP280;45905;50.570;10.428;2023-09-07T03:36:46;98453.81;;;14.46
61977;BMP280;45905;50.570;10.428;2023-09-07T03:39:14;98458.31;;;14.44
61977;BMP280;45905;50.570;10.428;2023-09-07T03:41:42;98461.81;;;14.43
61977;BMP280;45905;50.570;10.428;2023-09-07T03:44:09;98460.22;;;14.42
61977;BMP280;45905;50.570;10.428;2023-09-07T03:46:36;98453.53;;;14.41
61977;BMP280;45905;50.570;10.428;2023-09-07T03:49:04;98458.97;;;14.38
61977;BMP280;45905;50.570;10.428;2023-09-07T03:51:32;98451.81;;;14.34
61977;BMP280;45905;50.570;10.428;2023-09-07T03:53:59;98456.28;;;14.32
61977;BMP280;45905;50.570;10.428;2023-09-07T03:56:27;98454.84;;;14.30
61977;BMP280;45905;50.570;10.428;2023-09-07T03:58:54;98453.25;;;14.29
61977;BMP280;45905;50.570;10.428;2023-09-07T04:01:21;98459.50;;;14.26
61977;BMP280;45905;50.570;10.428;2023-09-07T04:03:48;98461.41;;;14.24
61977;BMP280;45905;50.570;10.428;2023-09-07T04:06:17;98457.28;;;14.23
61977;BMP280;45905;50.570;10.428;2023-09-07T04:08:44;98459.34;;;14.20
61977;BMP280;45905;50.570;10.428;2023-09-07T04:11:12;98451.09;;;14.18
61977;BMP280;45905;50.570;10.428;2023-09-07T04:13:40;98449.50;;;14.17
61977;BMP280;45905;50.570;10.428;2023-09-07T04:16:09;98447.91;;;14.16
61977;BMP280;45905;50.570;10.428;2023-09-07T04:18:37;98446.31;;;14.15
61977;BMP280;45905;50.570;10.428;2023-09-07T04:21:08;98449.34;;;14.11
61977;BMP280;45905;50.570;10.428;2023-09-07T04:23:36;98464.81;;;14.09
61977;BMP280;45905;50.570;10.428;2023-09-07T04:26:09;98460.66;;;14.08
61977;BMP280;45905;50.570;10.428;2023-09-07T04:28:38;98458.13;;;14.08
61977;BMP280;45905;50.570;10.428;2023-09-07T04:31:06;98477.06;;;14.06
61977;BMP280;45905;50.570;10.428;2023-09-07T04:33:34;98478.19;;;14.03
61977;BMP280;45905;50.570;10.428;2023-09-07T04:36:13;98469.28;;;13.99
61977;BMP280;45905;50.570;10.428;2023-09-07T04:38:45;98469.44;;;13.98
61977;BMP280;45905;50.570;10.428;2023-09-07T04:41:14;98475.66;;;13.95
61977;BMP280;45905;50.570;10.428;2023-09-07T04:43:42;98475.00;;;13.93
61977;BMP280;45905;50.570;10.428;2023-09-07T04:46:13;98472.00;;;13.90
61977;BMP280;45905;50.570;10.428;2023-09-07T04:48:41;98479.16;;;13.87
61977;BMP280;45905;50.570;10.428;2023-09-07T04:51:09;98481.88;;;13.85
61977;BMP280;45905;50.570;10.428;2023-09-07T04:53:38;98482.97;;;13.83
61977;BMP280;45905;50.570;10.428;2023-09-07T04:56:07;98481.38;;;13.82
61977;BMP280;45905;50.570;10.428;2023-09-07T04:58:36;98472.16;;;13.81
61977;BMP280;45905;50.570;10.428;2023-09-07T05:01:06;98471.50;;;13.79
61977;BMP280;45905;50.570;10.428;2023-09-07T05:03:36;98475.66;;;13.80
61977;BMP280;45905;50.570;10.428;2023-09-07T05:06:04;98468.97;;;13.79
61977;BMP280;45905;50.570;10.428;2023-09-07T05:08:32;98470.06;;;13.76
61977;BMP280;45905;50.570;10.428;2023-09-07T05:11:03;98466.72;;;13.76
61977;BMP280;45905;50.570;10.428;2023-09-07T05:13:31;98473.75;;;13.74
61977;BMP280;45905;50.570;10.428;2023-09-07T05:16:00;98474.72;;;13.73
61977;BMP280;45905;50.570;10.428;2023-09-07T05:18:28;98478.22;;;13.72
61977;BMP280;45905;50.570;10.428;2023-09-07T05:20:57;98478.22;;;13.72
61977;BMP280;45905;50.570;10.428;2023-09-07T05:23:24;98485.22;;;13.70
61977;BMP280;45905;50.570;10.428;2023-09-07T05:25:55;98483.63;;;13.69
61977;BMP280;45905;50.570;10.428;2023-09-07T05:28:25;98482.97;;;13.67
61977;BMP280;45905;50.570;10.428;2023-09-07T05:30:54;98479.97;;;13.64
61977;BMP280;45905;50.570;10.428;2023-09-07T05:33:23;98477.56;;;13.62
61977;BMP280;45905;50.570;10.428;2023-09-07T05:35:51;98486.97;;;13.62
61977;BMP280;45905;50.570;10.428;2023-09-07T05:38:18;98490.31;;;13.62
61977;BMP280;45905;50.570;10.428;2023-09-07T05:40:47;98501.13;;;13.64
61977;BMP280;45905;50.570;10.428;2023-09-07T05:43:17;98495.25;;;13.64
61977;BMP280;45905;50.570;10.428;2023-09-07T05:45:45;98490.31;;;13.62
61977;BMP280;45905;50.570;10.428;2023-09-07T05:48:13;98490.31;;;13.62
61977;BMP280;45905;50.570;10.428;2023-09-07T05:50:43;98495.09;;;13.65
61977;BMP280;45905;50.570;10.428;2023-09-07T05:53:10;98493.16;;;13.67
61977;BMP280;45905;50.570;10.428;2023-09-07T05:55:38;98492.53;;;13.65
61977;BMP280;45905;50.570;10.428;2023-09-07T05:58:08;98488.06;;;13.59
61977;BMP280;45905;50.570;10.428;2023-09-07T06:00:39;98489.03;;;13.58
61977;BMP280;45905;50.570;10.428;2023-09-07T06:03:08;98494.75;;;13.60
61977;BMP280;45905;50.570;10.428;2023-09-07T06:05:39;98486.00;;;13.63
61977;BMP280;45905;50.570;10.428;2023-09-07T06:08:08;98478.81;;;13.66
61977;BMP280;45905;50.570;10.428;2023-09-07T06:10:37;98490.59;;;13.67
61977;BMP280;45905;50.570;10.428;2023-09-07T06:13:06;98485.34;;;13.69
61977;BMP280;45905;50.570;10.428;2023-09-07T06:15:34;98482.97;;;13.67
61977;BMP280;45905;50.570;10.428;2023-09-07T06:18:02;98487.25;;;13.67
61977;BMP280;45905;50.570;10.428;2023-09-07T06:20:31;98486.66;;;13.65
61977;BMP280;45905;50.570;10.428;2023-09-07T06:22:59;98487.44;;;13.65
61977;BMP280;45905;50.570;10.428;2023-09-07T06:25:27;98491.75;;;13.65
61977;BMP280;45905;50.570;10.428;2023-09-07T06:27:55;98483.91;;;13.66
61977;BMP280;45905;50.570;10.428;2023-09-07T06:30:23;98487.09;;;13.68
61977;BMP280;45905;50.570;10.428;2023-09-07T06:32:50;98485.84;;;13.72
61977;BMP280;45905;50.570;10.428;2023-09-07T06:35:19;98487.91;;;13.76
61977;BMP280;45905;50.570;10.428;2023-09-07T06:37:47;98483.94;;;13.82
61977;BMP280;45905;50.570;10.428;2023-09-07T06:40:18;98491.09;;;13.86
61977;BMP280;45905;50.570;10.428;2023-09-07T06:42:49;98481.72;;;13.87
61977;BMP280;45905;50.570;10.428;2023-09-07T06:45:19;98492.22;;;13.92
61977;BMP280;45905;50.570;10.428;2023-09-07T06:47:49;98492.53;;;13.96
61977;BMP280;45905;50.570;10.428;2023-09-07T06:50:20;98489.31;;;14.02
61977;BMP280;45905;50.570;10.428;2023-09-07T06:52:48;98488.22;;;14.05
61977;BMP280;45905;50.570;10.428;2023-09-07T06:55:16;98489.28;;;14.10
61977;BMP280;45905;50.570;10.428;2023-09-07T06:57:44;98495.03;;;14.12
61977;BMP280;45905;50.570;10.428;2023-09-07T07:00:12;98502.03;;;14.18
61977;BMP280;45905;50.570;10.428;2023-09-07T07:02:40;98489.75;;;14.21
61977;BMP280;45905;50.570;10.428;2023-09-07T07:05:08;98503.63;;;14.27
61977;BMP280;45905;50.570;10.428;2023-09-07T07:07:37;98497.22;;;14.31
61977;BMP280;45905;50.570;10.428;2023-09-07T07:10:06;98493.19;;;14.36
61977;BMP280;45905;50.570;10.428;2023-09-07T07:12:36;98497.34;;;14.37
61977;BMP280;45905;50.570;10.428;2023-09-07T07:15:06;98503.72;;;14.41
61977;BMP280;45905;50.570;10.428;2023-09-07T07:17:34;98497.94;;;14.47
61977;BMP280;45905;50.570;10.428;2023-09-07T07:20:03;98495.72;;;14.51
61977;BMP280;45905;50.570;10.428;2023-09-07T07:22:31;98497.75;;;14.56
61977;BMP280;45905;50.570;10.428;2023-09-07T07:25:03;98493.78;;;14.61
61977;BMP280;45905;50.570;10.428;2023-09-07T07:27:34;98504.72;;;14.69
61977;BMP280;45905;50.570;10.428;2023-09-07T07:30:02;98500.72;;;14.75
61977;BMP280;45905;50.570;10.428;2023-09-07T07:32:30;98501.00;;;14.80
61977;BMP280;45905;50.570;10.428;2023-09-07T07:34:57;98497.94;;;14.84
61977;BMP280;45905;50.570;10.428;2023-09-07T07:37:25;98503.69;;;14.94
61977;BMP280;45905;50.570;10.428;2023-09-07T07:39:52;98502.19;;;14.99
61977;BMP280;45905;50.570;10.428;2023-09-07T07:42:20;98497.22;;;15.06
61977;BMP280;45905;50.570;10.428;2023-09-07T07:44:48;98496.56;;;15.11
61977;BMP280;45905;50.570;10.428;2023-09-07T07:47:15;98495.06;;;15.17
61977;BMP280;45905;50.570;10.428;2023-09-07T07:49:44;98493.91;;;15.27
61977;BMP280;45905;50.570;10.428;2023-09-07T07:52:11;98489.06;;;15.32
61977;BMP280;45905;50.570;10.428;2023-09-07T07:54:38;98482.59;;;15.44
61977;BMP280;45905;50.570;10.428;2023-09-07T07:57:05;98491.63;;;15.54
61977;BMP280;45905;50.570;10.428;2023-09-07T07:59:34;98488.81;;;15.63
61977;BMP280;45905;50.570;10.428;2023-09-07T08:02:01;98487.78;;;15.72
61977;BMP280;45905;50.570;10.428;2023-09-07T08:04:29;98484.38;;;15.79
61977;BMP280;45905;50.570;10.428;2023-09-07T08:06:59;98477.44;;;15.87
61977;BMP280;45905;50.570;10.428;2023-09-07T08:09:32;98481.19;;;15.99
61977;BMP280;45905;50.570;10.428;2023-09-07T08:12:00;98472.97;;;16.03
61977;BMP280;45905;50.570;10.428;2023-09-07T08:14:32;98487.53;;;16.17
61977;BMP280;45905;50.570;10.428;2023-09-07T08:17:01;98484.91;;;16.25
61977;BMP280;45905;50.570;10.428;2023-09-07T08:19:29;98464.19;;;16.34
61977;BMP280;45905;50.570;10.428;2023-09-07T08:21:58;98473.25;;;16.51
61977;BMP280;45905;50.570;10.428;2023-09-07T08:24:25;98478.28;;;16.59
61977;BMP280;45905;50.570;10.428;2023-09-07T08:26:53;98466.34;;;16.65
61977;BMP280;45905;50.570;10.428;2023-09-07T08:29:22;98473.63;;;16.82
61977;BMP280;45905;50.570;10.428;2023-09-07T08:31:56;98456.69;;;16.96
61977;BMP280;45905;50.570;10.428;2023-09-07T08:34:25;98454.63;;;17.05
61977;BMP280;45905;50.570;10.428;2023-09-07T08:36:53;98459.25;;;17.16
61977;BMP280;45905;50.570;10.428;2023-09-07T08:39:22;98459.25;;;17.37
61977;BMP280;45905;50.570;10.428;2023-09-07T08:41:49;98448.22;;;17.57
61977;BMP280;45905;50.570;10.428;2023-09-07T08:44:29;98444.25;;;17.81
61977;BMP280;45905;50.570;10.428;2023-09-07T08:46:59;98448.75;;;17.99
61977;BMP280;45905;50.570;10.428;2023-09-07T08:49:27;98449.03;;;18.11
61977;BMP280;45905;50.570;10.428;2023-09-07T08:52:01;98433.50;;;18.18
61977;BMP280;45905;50.570;10.428;2023-09-07T08:54:31;98433.16;;;18.28
61977;BMP280;45905;50.570;10.428;2023-09-07T08:56:59;98439.72;;;18.36
61977;BMP280;45905;50.570;10.428;2023-09-07T08:59:26;98436.38;;;18.42
61977;BMP280;45905;50.570;10.428;2023-09-07T09:01:57;98429.66;;;18.48
61977;BMP280;45905;50.570;10.428;2023-09-07T09:04:27;98424.44;;;18.68
61977;BMP280;45905;50.570;10.428;2023-09-07T09:06:56;98425.88;;;18.83
61977;BMP280;45905;50.570;10.428;2023-09-07T09:09:24;98427.13;;;19.06
61977;BMP280;45905;50.570;10.428;2023-09-07T09:11:52;98426.38;;;19.25
61977;BMP280;45905;50.570;10.428;2023-09-07T09:14:19;98420.25;;;19.38
61977;BMP280;45905;50.570;10.428;2023-09-07T09:16:52;98426.78;;;19.47
61977;BMP280;45905;50.570;10.428;2023-09-07T09:19:30;98425.63;;;19.56
61977;BMP280;45905;50.570;10.428;2023-09-07T09:22:01;98422.66;;;19.65
61977;BMP280;45905;50.570;10.428;2023-09-07T09:24:34;98421.28;;;19.75
61977;BMP280;45905;50.570;10.428;2023-09-07T09:27:03;98423.63;;;19.96
61977;BMP280;45905;50.570;10.428;2023-09-07T09:29:35;98415.28;;;20.13
61977;BMP280;45905;50.570;10.428;2023-09-07T09:32:07;98413.44;;;20.26
61977;BMP280;45905;50.570;10.428;2023-09-07T09:34:38;98419.16;;;20.41
61977;BMP280;45905;50.570;10.428;2023-09-07T09:37:13;98425.41;;;20.57
61977;BMP280;45905;50.570;10.428;2023-09-07T09:39:43;98408.75;;;20.66
61977;BMP280;45905;50.570;10.428;2023-09-07T09:42:12;98403.13;;;20.82
61977;BMP280;45905;50.570;10.428;2023-09-07T09:44:41;98399.28;;;20.97
61977;BMP280;45905;50.570;10.428;2023-09-07T09:47:11;98391.50;;;21.03
61977;BMP280;45905;50.570;10.428;2023-09-07T09:49:41;98400.22;;;21.08
61977;BMP280;45905;50.570;10.428;2023-09-07T09:52:09;98394.97;;;21.21
61977;BMP280;45905;50.570;10.428;2023-09-07T09:54:39;98395.41;;;21.42
61977;BMP280;45905;50.570;10.428;2023-09-07T09:57:07;98393.38;;;21.50
61977;BMP280;45905;50.570;10.428;2023-09-07T09:59:34;98382.78;;;21.58
61977;BMP280;45905;50.570;10.428;2023-09-07T10:02:03;98387.47;;;21.67
61977;BMP280;45905;50.570;10.428;2023-09-07T10:04:31;98373.00;;;21.84
61977;BMP280;45905;50.570;10.428;2023-09-07T10:07:00;98378.72;;;22.10
61977;BMP280;45905;50.570;10.428;2023-09-07T10:09:38;98382.50;;;22.25
61977;BMP280;45905;50.570;10.428;2023-09-07T10:12:12;98377.34;;;22.25
61977;BMP280;45905;50.570;10.428;2023-09-07T10:14:43;98369.75;;;22.30
61977;BMP280;45905;50.570;10.428;2023-09-07T10:17:22;98366.78;;;22.44
61977;BMP280;45905;50.570;10.428;2023-09-07T10:19:49;98360.31;;;22.53
61977;BMP280;45905;50.570;10.428;2023-09-07T10:22:22;98361.84;;;22.60
61977;BMP280;45905;50.570;10.428;2023-09-07T10:24:57;98368.28;;;22.69
61977;BMP280;45905;50.570;10.428;2023-09-07T10:27:25;98363.25;;;22.74
61977;BMP280;45905;50.570;10.428;2023-09-07T10:29:52;98354.88;;;22.89
61977;BMP280;45905;50.570;10.428;2023-09-07T10:32:22;98349.19;;;22.98
61977;BMP280;45905;50.570;10.428;2023-09-07T10:34:50;98354.13;;;23.11
61977;BMP280;45905;50.570;10.428;2023-09-07T10:37:18;98350.34;;;23.25
61977;BMP280;45905;50.570;10.428;2023-09-07T10:39:46;98354.44;;;23.32
61977;BMP280;45905;50.570;10.428;2023-09-07T10:42:24;98349.25;;;23.32
61977;BMP280;45905;50.570;10.428;2023-09-07T10:44:53;98344.00;;;23.50
61977;BMP280;45905;50.570;10.428;2023-09-07T10:47:21;98354.00;;;23.69
61977;BMP280;45905;50.570;10.428;2023-09-07T10:49:49;98346.56;;;23.83
61977;BMP280;45905;50.570;10.428;2023-09-07T10:52:16;98344.97;;;23.93
61977;BMP280;45905;50.570;10.428;2023-09-07T10:54:44;98338.31;;;24.09
61977;BMP280;45905;50.570;10.428;2023-09-07T10:57:12;98344.06;;;24.22
61977;BMP280;45905;50.570;10.428;2023-09-07T10:59:45;98336.25;;;24.33
61977;BMP280;45905;50.570;10.428;2023-09-07T11:02:15;98332.75;;;24.39
61977;BMP280;45905;50.570;10.428;2023-09-07T11:04:43;98332.59;;;24.45
61977;BMP280;45905;50.570;10.428;2023-09-07T11:07:11;98324.44;;;24.53
61977;BMP280;45905;50.570;10.428;2023-09-07T11:09:43;98328.28;;;24.62
61977;BMP280;45905;50.570;10.428;2023-09-07T11:12:14;98329.25;;;24.72
61977;BMP280;45905;50.570;10.428;2023-09-07T11:14:47;98321.22;;;25.01
61977;BMP280;45905;50.570;10.428;2023-09-07T11:17:16;98314.69;;;25.30
61977;BMP280;45905;50.570;10.428;2023-09-07T11:19:43;98318.84;;;25.47
61977;BMP280;45905;50.570;10.428;2023-09-07T11:22:11;98309.19;;;25.59
61977;BMP280;45905;50.570;10.428;2023-09-07T11:24:39;98305.88;;;25.84
61977;BMP280;45905;50.570;10.428;2023-09-07T11:27:09;98305.84;;;26.01
61977;BMP280;45905;50.570;10.428;2023-09-07T11:29:36;98311.84;;;26.01
61977;BMP280;45905;50.570;10.428;2023-09-07T11:32:11;98291.94;;;26.06
61977;BMP280;45905;50.570;10.428;2023-09-07T11:34:51;98304.88;;;26.27
61977;BMP280;45905;50.570;10.428;2023-09-07T11:37:25;98297.19;;;26.37
61977;BMP280;45905;50.570;10.428;2023-09-07T11:39:53;98305.22;;;26.52
61977;BMP280;45905;50.570;10.428;2023-09-07T11:42:20;98295.94;;;26.61
61977;BMP280;45905;50.570;10.428;2023-09-07T11:44:47;98281.50;;;26.74
61977;BMP280;45905;50.570;10.428;2023-09-07T11:47:15;98281.84;;;26.82
61977;BMP280;45905;50.570;10.428;2023-09-07T11:49:42;98293.91;;;26.93
61977;BMP280;45905;50.570;10.428;2023-09-07T11:52:09;98297.44;;;27.08
61977;BMP280;45905;50.570;10.428;2023-09-07T11:54:36;98287.59;;;27.15
61977;BMP280;45905;50.570;10.428;2023-09-07T11:57:04;98289.22;;;27.21
61977;BMP280;45905;50.570;10.428;2023-09-07T11:59:31;98276.31;;;27.36
61977;BMP280;45905;50.570;10.428;2023-09-07T12:02:14;98278.50;;;27.58
61977;BMP280;45905;50.570;10.428;2023-09-07T12:04:42;98283.31;;;27.76
61977;BMP280;45905;50.570;10.428;2023-09-07T12:07:10;98277.38;;;27.85
61977;BMP280;45905;50.570;10.428;2023-09-07T12:09:37;98268.31;;;27.97
61977;BMP280;45905;50.570;10.428;2023-09-07T12:12:05;98263.91;;;28.02
61977;BMP280;45905;50.570;10.428;2023-09-07T12:14:33;98261.88;;;28.19
61977;BMP280;45905;50.570;10.428;2023-09-07T12:17:00;98268.47;;;28.31
61977;BMP280;45905;50.570;10.428;2023-09-07T12:19:27;98254.69;;;28.55
61977;BMP280;45905;50.570;10.428;2023-09-07T12:21:54;98255.03;;;28.88
61977;BMP280;45905;50.570;10.428;2023-09-07T12:24:22;98249.53;;;28.99
61977;BMP280;45905;50.570;10.428;2023-09-07T12:26:49;98252.41;;;28.97
61977;BMP280;45905;50.570;10.428;2023-09-07T12:29:17;98250.84;;;28.96
61977;BMP280;45905;50.570;10.428;2023-09-07T12:31:44;98246.69;;;29.05
61977;BMP280;45905;50.570;10.428;2023-09-07T12:34:12;98251.38;;;29.13
61977;BMP280;45905;50.570;10.428;2023-09-07T12:36:39;98245.06;;;29.33
61977;BMP280;45905;50.570;10.428;2023-09-07T12:39:08;98238.81;;;29.49
61977;BMP280;45905;50.570;10.428;2023-09-07T12:41:35;98227.81;;;29.57
61977;BMP280;45905;50.570;10.428;2023-09-07T12:44:02;98240.31;;;29.60
61977;BMP280;45905;50.570;10.428;2023-09-07T12:46:30;98243.97;;;29.64
61977;BMP280;45905;50.570;10.428;2023-09-07T12:48:58;98235.31;;;29.68
61977;BMP280;45905;50.570;10.428;2023-09-07T12:51:25;98235.84;;;29.75
61977;BMP280;45905;50.570;10.428;2023-09-07T12:53:52;98230.28;;;29.86
61977;BMP280;45905;50.570;10.428;2023-09-07T12:56:19;98232.63;;;29.97
61977;BMP280;45905;50.570;10.428;2023-09-07T12:58:46;98229.97;;;30.07
61977;BMP280;45905;50.570;10.428;2023-09-07T13:01:14;98231.19;;;30.24
61977;BMP280;45905;50.570;10.428;2023-09-07T13:03:43;98226.91;;;30.43
61977;BMP280;45905;50.570;10.428;2023-09-07T13:06:10;98229.63;;;30.65
61977;BMP280;45905;50.570;10.428;2023-09-07T13:08:38;98221.94;;;30.79
61977;BMP280;45905;50.570;10.428;2023-09-07T13:11:05;98223.13;;;30.91
61977;BMP280;45905;50.570;10.428;2023-09-07T13:13:33;98218.88;;;31.00
61977;BMP280;45905;50.570;10.428;2023-09-07T13:16:00;98216.44;;;31.13
61977;BMP280;45905;50.570;10.428;2023-09-07T13:18:28;98213.63;;;31.32
61977;BMP280;45905;50.570;10.428;2023-09-07T13:20:56;98207.97;;;31.48
61977;BMP280;45905;50.570;10.428;2023-09-07T13:23:27;98212.25;;;31.62
61977;BMP280;45905;50.570;10.428;2023-09-07T13:25:55;98197.97;;;31.73
61977;BMP280;45905;50.570;10.428;2023-09-07T13:28:23;98194.22;;;31.79
61977;BMP280;45905;50.570;10.428;2023-09-07T13:30:51;98197.22;;;31.91
61977;BMP280;45905;50.570;10.428;2023-09-07T13:33:18;98193.31;;;32.11
61977;BMP280;45905;50.570;10.428;2023-09-07T13:35:45;98183.88;;;32.28
61977;BMP280;45905;50.570;10.428;2023-09-07T13:38:13;98175.72;;;32.48
61977;BMP280;45905;50.570;10.428;2023-09-07T13:40:43;98175.78;;;32.61
61977;BMP280;45905;50.570;10.428;2023-09-07T13:43:10;98172.91;;;32.76
61977;BMP280;45905;50.570;10.428;2023-09-07T13:45:37;98173.22;;;32.87
61977;BMP280;45905;50.570;10.428;2023-09-07T13:48:05;98168.72;;;33.06
61977;BMP280;45905;50.570;10.428;2023-09-07T13:50:32;98161.63;;;33.19
61977;BMP280;45905;50.570;10.428;2023-09-07T13:53:02;98167.88;;;33.23
61977;BMP280;45905;50.570;10.428;2023-09-07T13:55:29;98164.56;;;33.31
61977;BMP280;45905;50.570;10.428;2023-09-07T13:57:57;98167.81;;;33.41
61977;BMP280;45905;50.570;10.428;2023-09-07T14:00:24;98162.66;;;33.50
61977;BMP280;45905;50.570;10.428;2023-09-07T14:02:51;98161.75;;;33.67
61977;BMP280;45905;50.570;10.428;2023-09-07T14:05:19;98155.13;;;33.83